sensor_id;sensor_type;location;lat;lon;timestamp;P1;durP1;ratioP1;P2;durP2;ratioP2
35223;SDS011;21367;51.930;8.112;2023-09-12T00:04:45;10.57;;;6.25;;
35223;SDS011;21367;51.930;8.112;2023-09-12T00:09:53;10.38;;;6.57;;
35223;SDS011;21367;51.930;8.112;2023-09-12T00:14:57;10.43;;;6.07;;
35223;SDS011;21367;51.930;8.112;2023-09-12T00:20:01;9.95;;;5.80;;
35223;SDS011;21367;51.930;8.112;2023-09-12T00:25:09;12.82;;;5.95;;
35223;SDS011;21367;51.930;8.112;2023-09-12T00:30:13;11.25;;;6.18;;
35223;SDS011;21367;51.930;8.112;2023-09-12T00:35:17;17.02;;;8.40;;
35223;SDS011;21367;51.930;8.112;2023-09-12T00:40:24;14.00;;;7.45;;
35223;SDS011;21367;51.930;8.112;2023-09-12T00:45:27;12.70;;;7.53;;
35223;SDS011;21367;51.930;8.112;2023-09-12T00:50:31;17.02;;;7.70;;
35223;SDS011;21367;51.930;8.112;2023-09-12T00:55:39;9.65;;;6.60;;
35223;SDS011;21367;51.930;8.112;2023-09-12T01:00:48;19.77;;;7.90;;
35223;SDS011;21367;51.930;8.112;2023-09-12T01:05:52;19.02;;;7.80;;
35223;SDS011;21367;51.930;8.112;2023-09-12T01:10:58;20.08;;;10.48;;
35223;SDS011;21367;51.930;8.112;2023-09-12T01:16:03;16.75;;;10.38;;
35223;SDS011;21367;51.930;8.112;2023-09-12T01:26:45;17.20;;;9.57;;
35223;SDS011;21367;51.930;8.112;2023-09-12T01:31:58;21.27;;;12.70;;
35223;SDS011;21367;51.930;8.112;2023-09-12T01:37:04;22.10;;;12.88;;
35223;SDS011;21367;51.930;8.112;2023-09-12T01:42:08;23.13;;;12.43;;
35223;SDS011;21367;51.930;8.112;2023-09-12T01:47:17;23.10;;;12.30;;
35223;SDS011;21367;51.930;8.112;2023-09-12T01:52:23;24.60;;;12.95;;
35223;SDS011;21367;51.930;8.112;2023-09-12T01:57:28;31.50;;;16.00;;
35223;SDS011;21367;51.930;8.112;2023-09-12T02:02:35;28.35;;;15.65;;
35223;SDS011;21367;51.930;8.112;2023-09-12T02:07:40;27.88;;;16.10;;
35223;SDS011;21367;51.930;8.112;2023-09-12T02:12:45;33.55;;;17.15;;
35223;SDS011;21367;51.930;8.112;2023-09-12T02:17:51;30.08;;;17.42;;
35223;SDS011;21367;51.930;8.112;2023-09-12T02:22:55;34.03;;;18.58;;
35223;SDS011;21367;51.930;8.112;2023-09-12T02:27:59;32.55;;;18.60;;
35223;SDS011;21367;51.930;8.112;2023-09-12T02:33:05;28.17;;;15.85;;
35223;SDS011;21367;51.930;8.112;2023-09-12T02:38:09;30.25;;;14.45;;
35223;SDS011;21367;51.930;8.112;2023-09-12T02:43:13;27.17;;;14.93;;
35223;SDS011;21367;51.930;8.112;2023-09-12T02:48:19;23.00;;;12.75;;
35223;SDS011;21367;51.930;8.112;2023-09-12T02:53:23;18.65;;;10.88;;
35223;SDS011;21367;51.930;8.112;2023-09-12T02:58:26;20.00;;;11.15;;
35223;SDS011;21367;51.930;8.112;2023-09-12T03:03:33;23.65;;;10.88;;
35223;SDS011;21367;51.930;8.112;2023-09-12T03:08:36;20.55;;;12.73;;
35223;SDS011;21367;51.930;8.112;2023-09-12T03:13:40;21.77;;;11.43;;
35223;SDS011;21367;51.930;8.112;2023-09-12T03:18:47;22.67;;;12.50;;
35223;SDS011;21367;51.930;8.112;2023-09-12T03:23:51;21.17;;;12.23;;
35223;SDS011;21367;51.930;8.112;2023-09-12T03:28:55;29.65;;;12.63;;
35223;SDS011;21367;51.930;8.112;2023-09-12T03:34:02;26.05;;;13.23;;
35223;SDS011;21367;51.930;8.112;2023-09-12T03:39:05;25.30;;;12.73;;
35223;SDS011;21367;51.930;8.112;2023-09-12T03:44:09;23.85;;;12.82;;
35223;SDS011;21367;51.930;8.112;2023-09-12T03:49:16;20.35;;;11.90;;
35223;SDS011;21367;51.930;8.112;2023-09-12T03:54:19;18.75;;;10.20;;
35223;SDS011;21367;51.930;8.112;2023-09-12T03:59:23;14.82;;;9.32;;
35223;SDS011;21367;51.930;8.112;2023-09-12T04:04:29;20.17;;;9.82;;
35223;SDS011;21367;51.930;8.112;2023-09-12T04:09:33;20.95;;;11.00;;
35223;SDS011;21367;51.930;8.112;2023-09-12T04:14:37;31.02;;;12.73;;
35223;SDS011;21367;51.930;8.112;2023-09-12T04:19:43;27.27;;;14.02;;
35223;SDS011;21367;51.930;8.112;2023-09-12T04:24:47;50.10;;;15.88;;
35223;SDS011;21367;51.930;8.112;2023-09-12T04:29:51;27.20;;;14.45;;
35223;SDS011;21367;51.930;8.112;2023-09-12T04:34:57;34.60;;;16.90;;
35223;SDS011;21367;51.930;8.112;2023-09-12T04:40:01;36.38;;;15.07;;
35223;SDS011;21367;51.930;8.112;2023-09-12T04:45:07;32.25;;;14.52;;
35223;SDS011;21367;51.930;8.112;2023-09-12T04:50:14;32.95;;;14.70;;
35223;SDS011;21367;51.930;8.112;2023-09-12T04:55:18;24.50;;;13.85;;
35223;SDS011;21367;51.930;8.112;2023-09-12T05:00:22;28.00;;;14.30;;
35223;SDS011;21367;51.930;8.112;2023-09-12T05:05:28;27.88;;;12.98;;
35223;SDS011;21367;51.930;8.112;2023-09-12T05:10:32;35.25;;;12.93;;
35223;SDS011;21367;51.930;8.112;2023-09-12T05:19:54;30.15;;;13.75;;
35223;SDS011;21367;51.930;8.112;2023-09-12T05:24:58;33.22;;;15.02;;
35223;SDS011;21367;51.930;8.112;2023-09-12T05:30:02;38.10;;;15.15;;
35223;SDS011;21367;51.930;8.112;2023-09-12T05:35:09;27.52;;;12.30;;
35223;SDS011;21367;51.930;8.112;2023-09-12T05:40:13;28.40;;;11.48;;
35223;SDS011;21367;51.930;8.112;2023-09-12T05:45:17;23.95;;;10.65;;
35223;SDS011;21367;51.930;8.112;2023-09-12T05:50:23;20.15;;;9.38;;
35223;SDS011;21367;51.930;8.112;2023-09-12T05:55:27;27.10;;;9.05;;
35223;SDS011;21367;51.930;8.112;2023-09-12T06:00:31;25.20;;;9.20;;
35223;SDS011;21367;51.930;8.112;2023-09-12T06:05:37;16.55;;;8.13;;
35223;SDS011;21367;51.930;8.112;2023-09-12T06:10:41;19.88;;;8.45;;
35223;SDS011;21367;51.930;8.112;2023-09-12T06:15:45;25.90;;;9.77;;
35223;SDS011;21367;51.930;8.112;2023-09-12T06:20:51;18.38;;;8.93;;
35223;SDS011;21367;51.930;8.112;2023-09-12T06:25:55;23.75;;;8.75;;
35223;SDS011;21367;51.930;8.112;2023-09-12T06:30:59;17.35;;;9.07;;
35223;SDS011;21367;51.930;8.112;2023-09-12T06:36:05;21.23;;;9.20;;
35223;SDS011;21367;51.930;8.112;2023-09-12T06:41:09;24.05;;;9.55;;
35223;SDS011;21367;51.930;8.112;2023-09-12T06:46:13;22.73;;;10.48;;
35223;SDS011;21367;51.930;8.112;2023-09-12T06:51:22;21.80;;;9.80;;
35223;SDS011;21367;51.930;8.112;2023-09-12T06:56:27;30.90;;;12.10;;
35223;SDS011;21367;51.930;8.112;2023-09-12T07:01:30;30.90;;;12.52;;
35223;SDS011;21367;51.930;8.112;2023-09-12T07:06:36;35.03;;;12.75;;
35223;SDS011;21367;51.930;8.112;2023-09-12T07:16:44;28.15;;;13.88;;
35223;SDS011;21367;51.930;8.112;2023-09-12T07:21:50;25.83;;;12.80;;
35223;SDS011;21367;51.930;8.112;2023-09-12T07:26:53;24.23;;;13.00;;
35223;SDS011;21367;51.930;8.112;2023-09-12T07:31:58;26.02;;;13.60;;
35223;SDS011;21367;51.930;8.112;2023-09-12T07:37:05;35.58;;;17.13;;
35223;SDS011;21367;51.930;8.112;2023-09-12T07:42:09;24.98;;;14.50;;
35223;SDS011;21367;51.930;8.112;2023-09-12T07:47:12;26.98;;;14.32;;
35223;SDS011;21367;51.930;8.112;2023-09-12T07:52:18;30.02;;;14.20;;
35223;SDS011;21367;51.930;8.112;2023-09-12T07:57:22;34.03;;;17.00;;
35223;SDS011;21367;51.930;8.112;2023-09-12T08:02:26;24.95;;;15.13;;
35223;SDS011;21367;51.930;8.112;2023-09-12T08:07:32;32.83;;;16.67;;
35223;SDS011;21367;51.930;8.112;2023-09-12T08:12:36;32.67;;;17.50;;
35223;SDS011;21367;51.930;8.112;2023-09-12T08:17:41;31.80;;;18.10;;
35223;SDS011;21367;51.930;8.112;2023-09-12T08:22:48;37.88;;;19.05;;
35223;SDS011;21367;51.930;8.112;2023-09-12T08:32:55;34.85;;;17.90;;
35223;SDS011;21367;51.930;8.112;2023-09-12T08:38:01;27.45;;;15.18;;
35223;SDS011;21367;51.930;8.112;2023-09-12T08:43:05;32.90;;;16.98;;
35223;SDS011;21367;51.930;8.112;2023-09-12T08:48:09;30.92;;;17.23;;
35223;SDS011;21367;51.930;8.112;2023-09-12T08:53:16;28.25;;;16.50;;
35223;SDS011;21367;51.930;8.112;2023-09-12T08:58:22;28.77;;;15.60;;
35223;SDS011;21367;51.930;8.112;2023-09-12T09:03:26;22.23;;;14.90;;
35223;SDS011;21367;51.930;8.112;2023-09-12T09:08:33;25.38;;;15.88;;
35223;SDS011;21367;51.930;8.112;2023-09-12T09:13:38;40.90;;;17.98;;
35223;SDS011;21367;51.930;8.112;2023-09-12T09:18:53;29.08;;;16.10;;
35223;SDS011;21367;51.930;8.112;2023-09-12T09:24:01;35.00;;;17.83;;
35223;SDS011;21367;51.930;8.112;2023-09-12T09:29:08;40.03;;;19.85;;
35223;SDS011;21367;51.930;8.112;2023-09-12T09:34:13;32.58;;;18.23;;
35223;SDS011;21367;51.930;8.112;2023-09-12T09:39:22;34.72;;;19.85;;
35223;SDS011;21367;51.930;8.112;2023-09-12T09:44:26;39.13;;;18.90;;
35223;SDS011;21367;51.930;8.112;2023-09-12T09:49:31;32.60;;;19.00;;
35223;SDS011;21367;51.930;8.112;2023-09-12T09:54:38;31.70;;;19.92;;
35223;SDS011;21367;51.930;8.112;2023-09-12T09:59:48;33.90;;;18.92;;
35223;SDS011;21367;51.930;8.112;2023-09-12T10:04:52;30.58;;;18.15;;
35223;SDS011;21367;51.930;8.112;2023-09-12T10:10:01;33.33;;;19.95;;
35223;SDS011;21367;51.930;8.112;2023-09-12T10:15:06;31.10;;;19.70;;
35223;SDS011;21367;51.930;8.112;2023-09-12T10:20:19;32.45;;;19.00;;
35223;SDS011;21367;51.930;8.112;2023-09-12T10:25:30;23.48;;;15.85;;
35223;SDS011;21367;51.930;8.112;2023-09-12T10:30:34;25.42;;;12.95;;
35223;SDS011;21367;51.930;8.112;2023-09-12T10:35:39;20.38;;;10.55;;
35223;SDS011;21367;51.930;8.112;2023-09-12T10:40:46;20.40;;;10.83;;
35223;SDS011;21367;51.930;8.112;2023-09-12T10:45:52;17.92;;;11.02;;
35223;SDS011;21367;51.930;8.112;2023-09-12T10:50:56;15.13;;;9.75;;
35223;SDS011;21367;51.930;8.112;2023-09-12T10:56:15;11.50;;;7.45;;
35223;SDS011;21367;51.930;8.112;2023-09-12T11:01:21;12.93;;;6.65;;
35223;SDS011;21367;51.930;8.112;2023-09-12T11:06:28;8.65;;;5.07;;
35223;SDS011;21367;51.930;8.112;2023-09-12T11:11:35;8.23;;;4.95;;
35223;SDS011;21367;51.930;8.112;2023-09-12T11:16:39;7.47;;;5.13;;
35223;SDS011;21367;51.930;8.112;2023-09-12T11:21:44;9.38;;;3.92;;
35223;SDS011;21367;51.930;8.112;2023-09-12T11:26:56;9.00;;;4.28;;
35223;SDS011;21367;51.930;8.112;2023-09-12T11:32:00;11.63;;;4.38;;
35223;SDS011;21367;51.930;8.112;2023-09-12T11:37:04;6.45;;;3.95;;
35223;SDS011;21367;51.930;8.112;2023-09-12T11:42:10;5.40;;;3.65;;
35223;SDS011;21367;51.930;8.112;2023-09-12T11:47:14;8.70;;;4.18;;
35223;SDS011;21367;51.930;8.112;2023-09-12T11:52:18;5.20;;;3.40;;
35223;SDS011;21367;51.930;8.112;2023-09-12T11:57:24;4.97;;;2.63;;
35223;SDS011;21367;51.930;8.112;2023-09-12T12:02:28;7.65;;;3.42;;
35223;SDS011;21367;51.930;8.112;2023-09-12T12:07:32;6.22;;;3.40;;
35223;SDS011;21367;51.930;8.112;2023-09-12T12:12:38;4.72;;;2.97;;
35223;SDS011;21367;51.930;8.112;2023-09-12T12:17:42;5.78;;;2.78;;
35223;SDS011;21367;51.930;8.112;2023-09-12T12:22:45;10.25;;;3.38;;
35223;SDS011;21367;51.930;8.112;2023-09-12T12:27:51;5.82;;;3.08;;
35223;SDS011;21367;51.930;8.112;2023-09-12T12:32:55;5.45;;;3.30;;
35223;SDS011;21367;51.930;8.112;2023-09-12T12:37:59;4.07;;;2.47;;
35223;SDS011;21367;51.930;8.112;2023-09-12T12:43:05;6.53;;;3.00;;
35223;SDS011;21367;51.930;8.112;2023-09-12T12:48:10;7.05;;;3.42;;
35223;SDS011;21367;51.930;8.112;2023-09-12T12:53:14;4.75;;;3.40;;
35223;SDS011;21367;51.930;8.112;2023-09-12T12:58:20;9.68;;;4.28;;
35223;SDS011;21367;51.930;8.112;2023-09-12T13:03:24;9.45;;;4.95;;
35223;SDS011;21367;51.930;8.112;2023-09-12T13:08:27;8.32;;;4.82;;
35223;SDS011;21367;51.930;8.112;2023-09-12T13:13:34;6.93;;;4.70;;
35223;SDS011;21367;51.930;8.112;2023-09-12T13:18:38;10.82;;;5.00;;
35223;SDS011;21367;51.930;8.112;2023-09-12T13:23:42;8.97;;;5.13;;
35223;SDS011;21367;51.930;8.112;2023-09-12T13:28:48;8.52;;;5.53;;
35223;SDS011;21367;51.930;8.112;2023-09-12T13:33:52;8.75;;;4.70;;
35223;SDS011;21367;51.930;8.112;2023-09-12T13:38:55;10.65;;;6.15;;
35223;SDS011;21367;51.930;8.112;2023-09-12T13:44:01;7.53;;;5.20;;
35223;SDS011;21367;51.930;8.112;2023-09-12T13:49:05;10.30;;;5.10;;
35223;SDS011;21367;51.930;8.112;2023-09-12T13:54:09;10.57;;;5.65;;
35223;SDS011;21367;51.930;8.112;2023-09-12T13:59:17;8.48;;;5.72;;
35223;SDS011;21367;51.930;8.112;2023-09-12T14:04:21;9.45;;;4.90;;
35223;SDS011;21367;51.930;8.112;2023-09-12T14:09:24;8.45;;;5.53;;
35223;SDS011;21367;51.930;8.112;2023-09-12T14:14:31;8.07;;;5.28;;
35223;SDS011;21367;51.930;8.112;2023-09-12T14:19:34;8.30;;;5.65;;
35223;SDS011;21367;51.930;8.112;2023-09-12T14:24:38;10.20;;;5.78;;
35223;SDS011;21367;51.930;8.112;2023-09-12T14:29:44;10.73;;;5.65;;
35223;SDS011;21367;51.930;8.112;2023-09-12T14:34:51;8.45;;;5.28;;
35223;SDS011;21367;51.930;8.112;2023-09-12T14:39:54;9.52;;;5.78;;
35223;SDS011;21367;51.930;8.112;2023-09-12T14:45:01;12.75;;;5.85;;
35223;SDS011;21367;51.930;8.112;2023-09-12T14:50:05;8.10;;;4.97;;
35223;SDS011;21367;51.930;8.112;2023-09-12T14:55:09;9.90;;;5.93;;
35223;SDS011;21367;51.930;8.112;2023-09-12T15:00:15;7.97;;;4.97;;
35223;SDS011;21367;51.930;8.112;2023-09-12T15:05:19;13.60;;;5.57;;
35223;SDS011;21367;51.930;8.112;2023-09-12T15:10:23;8.75;;;4.82;;
35223;SDS011;21367;51.930;8.112;2023-09-12T15:15:30;7.65;;;4.03;;
35223;SDS011;21367;51.930;8.112;2023-09-12T15:20:33;8.20;;;4.30;;
35223;SDS011;21367;51.930;8.112;2023-09-12T15:25:37;7.70;;;4.97;;
35223;SDS011;21367;51.930;8.112;2023-09-12T15:30:43;9.55;;;4.38;;
35223;SDS011;21367;51.930;8.112;2023-09-12T15:35:47;5.80;;;3.80;;
35223;SDS011;21367;51.930;8.112;2023-09-12T15:40:51;10.73;;;5.38;;
35223;SDS011;21367;51.930;8.112;2023-09-12T15:45:57;7.40;;;4.77;;
35223;SDS011;21367;51.930;8.112;2023-09-12T15:51:01;8.20;;;4.70;;
35223;SDS011;21367;51.930;8.112;2023-09-12T15:56:06;8.43;;;4.90;;
35223;SDS011;21367;51.930;8.112;2023-09-12T16:01:12;12.27;;;5.85;;
35223;SDS011;21367;51.930;8.112;2023-09-12T16:06:16;7.97;;;5.22;;
35223;SDS011;21367;51.930;8.112;2023-09-12T16:11:19;7.20;;;5.15;;
35223;SDS011;21367;51.930;8.112;2023-09-12T16:16:25;10.48;;;6.03;;
35223;SDS011;21367;51.930;8.112;2023-09-12T16:21:29;16.30;;;6.32;;
35223;SDS011;21367;51.930;8.112;2023-09-12T16:26:33;9.23;;;6.00;;
35223;SDS011;21367;51.930;8.112;2023-09-12T16:31:39;10.57;;;6.40;;
35223;SDS011;21367;51.930;8.112;2023-09-12T16:36:42;12.52;;;6.97;;
35223;SDS011;21367;51.930;8.112;2023-09-12T16:41:47;12.80;;;6.60;;
35223;SDS011;21367;51.930;8.112;2023-09-12T16:46:53;9.68;;;6.53;;
35223;SDS011;21367;51.930;8.112;2023-09-12T16:51:57;15.10;;;7.47;;
35223;SDS011;21367;51.930;8.112;2023-09-12T16:57:00;14.70;;;7.47;;
35223;SDS011;21367;51.930;8.112;2023-09-12T17:02:06;14.15;;;7.97;;
35223;SDS011;21367;51.930;8.112;2023-09-12T17:07:11;12.77;;;8.35;;
35223;SDS011;21367;51.930;8.112;2023-09-12T17:12:16;16.30;;;7.65;;
35223;SDS011;21367;51.930;8.112;2023-09-12T17:17:22;13.70;;;7.53;;
35223;SDS011;21367;51.930;8.112;2023-09-12T17:22:26;13.38;;;7.53;;
35223;SDS011;21367;51.930;8.112;2023-09-12T17:27:29;10.63;;;7.30;;
35223;SDS011;21367;51.930;8.112;2023-09-12T17:32:35;16.30;;;7.00;;
35223;SDS011;21367;51.930;8.112;2023-09-12T17:37:39;11.07;;;7.32;;
35223;SDS011;21367;51.930;8.112;2023-09-12T17:42:43;16.17;;;7.15;;
35223;SDS011;21367;51.930;8.112;2023-09-12T17:47:49;11.65;;;7.95;;
35223;SDS011;21367;51.930;8.112;2023-09-12T17:52:54;11.95;;;7.15;;
35223;SDS011;21367;51.930;8.112;2023-09-12T17:57:57;14.88;;;8.05;;
35223;SDS011;21367;51.930;8.112;2023-09-12T18:03:04;13.43;;;8.23;;
35223;SDS011;21367;51.930;8.112;2023-09-12T18:08:08;19.77;;;8.73;;
35223;SDS011;21367;51.930;8.112;2023-09-12T18:13:11;13.95;;;9.02;;
35223;SDS011;21367;51.930;8.112;2023-09-12T18:18:18;28.20;;;8.55;;
35223;SDS011;21367;51.930;8.112;2023-09-12T18:23:21;15.13;;;9.10;;
35223;SDS011;21367;51.930;8.112;2023-09-12T18:28:35;14.25;;;8.93;;
35223;SDS011;21367;51.930;8.112;2023-09-12T18:33:44;16.17;;;8.25;;
35223;SDS011;21367;51.930;8.112;2023-09-12T18:38:48;14.23;;;8.80;;
35223;SDS011;21367;51.930;8.112;2023-09-12T18:43:52;15.60;;;9.15;;
35223;SDS011;21367;51.930;8.112;2023-09-12T18:48:58;17.10;;;9.63;;
35223;SDS011;21367;51.930;8.112;2023-09-12T18:54:03;17.95;;;10.20;;
35223;SDS011;21367;51.930;8.112;2023-09-12T18:59:07;19.10;;;11.38;;
35223;SDS011;21367;51.930;8.112;2023-09-12T19:09:37;18.45;;;11.45;;
35223;SDS011;21367;51.930;8.112;2023-09-12T19:14:41;16.92;;;10.35;;
35223;SDS011;21367;51.930;8.112;2023-09-12T19:19:47;23.80;;;11.75;;
35223;SDS011;21367;51.930;8.112;2023-09-12T19:24:51;22.23;;;11.38;;
35223;SDS011;21367;51.930;8.112;2023-09-12T19:29:55;19.98;;;11.38;;
35223;SDS011;21367;51.930;8.112;2023-09-12T19:35:03;16.33;;;10.73;;
35223;SDS011;21367;51.930;8.112;2023-09-12T19:40:08;18.48;;;11.73;;
35223;SDS011;21367;51.930;8.112;2023-09-12T19:45:15;17.05;;;11.77;;
35223;SDS011;21367;51.930;8.112;2023-09-12T19:50:21;17.05;;;11.27;;
35223;SDS011;21367;51.930;8.112;2023-09-12T19:55:25;17.60;;;11.90;;
35223;SDS011;21367;51.930;8.112;2023-09-12T20:00:29;17.60;;;12.23;;
35223;SDS011;21367;51.930;8.112;2023-09-12T20:10:41;20.10;;;13.00;;
35223;SDS011;21367;51.930;8.112;2023-09-12T20:15:44;20.30;;;12.90;;
35223;SDS011;21367;51.930;8.112;2023-09-12T20:20:51;17.00;;;11.20;;
35223;SDS011;21367;51.930;8.112;2023-09-12T20:25:56;15.90;;;11.88;;
35223;SDS011;21367;51.930;8.112;2023-09-12T20:31:01;22.70;;;13.73;;
35223;SDS011;21367;51.930;8.112;2023-09-12T20:36:07;19.85;;;13.93;;
35223;SDS011;21367;51.930;8.112;2023-09-12T20:41:11;19.17;;;13.65;;
35223;SDS011;21367;51.930;8.112;2023-09-12T20:46:15;20.48;;;12.85;;
35223;SDS011;21367;51.930;8.112;2023-09-12T20:51:21;19.67;;;12.90;;
35223;SDS011;21367;51.930;8.112;2023-09-12T20:56:25;20.73;;;13.82;;
35223;SDS011;21367;51.930;8.112;2023-09-12T21:01:29;26.95;;;14.32;;
35223;SDS011;21367;51.930;8.112;2023-09-12T21:06:35;22.98;;;13.73;;
35223;SDS011;21367;51.930;8.112;2023-09-12T21:11:38;23.17;;;13.43;;
35223;SDS011;21367;51.930;8.112;2023-09-12T21:16:42;23.52;;;12.85;;
35223;SDS011;21367;51.930;8.112;2023-09-12T21:21:49;26.90;;;14.57;;
35223;SDS011;21367;51.930;8.112;2023-09-12T21:26:53;25.73;;;15.40;;
35223;SDS011;21367;51.930;8.112;2023-09-12T21:31:57;25.73;;;16.95;;
35223;SDS011;21367;51.930;8.112;2023-09-12T21:37:03;35.30;;;19.02;;
35223;SDS011;21367;51.930;8.112;2023-09-12T21:42:08;29.27;;;19.85;;
35223;SDS011;21367;51.930;8.112;2023-09-12T21:47:14;30.13;;;20.98;;
35223;SDS011;21367;51.930;8.112;2023-09-12T21:52:21;36.28;;;23.05;;
35223;SDS011;21367;51.930;8.112;2023-09-12T21:57:25;29.33;;;19.40;;
35223;SDS011;21367;51.930;8.112;2023-09-12T22:02:28;34.05;;;20.65;;
35223;SDS011;21367;51.930;8.112;2023-09-12T22:07:34;35.83;;;20.73;;
35223;SDS011;21367;51.930;8.112;2023-09-12T22:12:38;30.08;;;18.85;;
35223;SDS011;21367;51.930;8.112;2023-09-12T22:17:42;29.52;;;17.90;;
35223;SDS011;21367;51.930;8.112;2023-09-12T22:22:48;31.10;;;19.58;;
35223;SDS011;21367;51.930;8.112;2023-09-12T22:27:52;27.85;;;16.25;;
35223;SDS011;21367;51.930;8.112;2023-09-12T22:32:56;21.20;;;14.05;;
35223;SDS011;21367;51.930;8.112;2023-09-12T22:38:02;23.85;;;13.18;;
35223;SDS011;21367;51.930;8.112;2023-09-12T22:43:06;20.60;;;12.70;;
35223;SDS011;21367;51.930;8.112;2023-09-12T22:48:09;22.00;;;13.05;;
35223;SDS011;21367;51.930;8.112;2023-09-12T22:53:18;24.35;;;12.75;;
35223;SDS011;21367;51.930;8.112;2023-09-12T22:58:22;22.63;;;11.80;;
35223;SDS011;21367;51.930;8.112;2023-09-12T23:03:25;23.63;;;12.50;;
35223;SDS011;21367;51.930;8.112;2023-09-12T23:08:32;22.05;;;11.80;;
35223;SDS011;21367;51.930;8.112;2023-09-12T23:13:36;18.92;;;11.13;;
35223;SDS011;21367;51.930;8.112;2023-09-12T23:18:39;17.30;;;9.52;;
35223;SDS011;21367;51.930;8.112;2023-09-12T23:23:46;20.17;;;10.80;;
35223;SDS011;21367;51.930;8.112;2023-09-12T23:28:49;17.58;;;9.35;;
35223;SDS011;21367;51.930;8.112;2023-09-12T23:33:53;18.20;;;10.05;;
35223;SDS011;21367;51.930;8.112;2023-09-12T23:39:00;18.90;;;9.70;;
35223;SDS011;21367;51.930;8.112;2023-09-12T23:44:05;17.77;;;8.88;;
35223;SDS011;21367;51.930;8.112;2023-09-12T23:49:08;16.60;;;10.15;;
35223;SDS011;21367;51.930;8.112;2023-09-12T23:54:15;16.80;;;10.10;;
35223;SDS011;21367;51.930;8.112;2023-09-12T23:59:19;18.15;;;10.05;;
